createdAt,value
2019-05-25T00:01:44.488Z,16.30
2019-05-25T00:04:11.217Z,16.10
2019-05-25T00:06:37.908Z,16.10
2019-05-25T00:09:06.100Z,16.00
2019-05-25T00:11:32.827Z,15.90
2019-05-25T00:13:59.537Z,15.80
2019-05-25T00:16:26.252Z,15.90
2019-05-25T00:18:53.064Z,16.00
2019-05-25T00:21:19.776Z,15.90
2019-05-25T00:23:46.733Z,15.90
2019-05-25T00:26:13.491Z,15.90
2019-05-25T00:28:40.241Z,15.80
2019-05-25T00:31:06.934Z,15.90
2019-05-25T00:33:44.236Z,15.80
2019-05-25T00:36:11.177Z,15.90
2019-05-25T00:38:38.228Z,15.90
2019-05-25T00:41:05.013Z,15.90
2019-05-25T00:43:32.185Z,15.90
2019-05-25T00:45:58.876Z,15.90
2019-05-25T00:48:26.003Z,15.80
2019-05-25T00:50:52.736Z,15.80
2019-05-25T00:53:19.529Z,15.80
2019-05-25T00:55:46.322Z,15.90
2019-05-25T00:58:13.034Z,15.90
2019-05-25T01:00:40.187Z,16.00
2019-05-25T01:03:06.880Z,16.00
2019-05-25T01:05:33.685Z,15.90
2019-05-25T01:08:00.394Z,15.90
2019-05-25T01:10:27.157Z,15.80
2019-05-25T01:12:53.862Z,15.80
2019-05-25T01:15:20.968Z,15.90
2019-05-25T01:17:47.713Z,15.80
2019-05-25T01:20:15.124Z,15.90
2019-05-25T01:22:41.913Z,15.90
2019-05-25T01:25:10.640Z,15.80
2019-05-25T01:27:37.322Z,15.80
2019-05-25T01:30:05.069Z,15.80
2019-05-25T01:32:31.775Z,15.70
2019-05-25T01:34:58.469Z,15.70
2019-05-25T01:37:25.275Z,15.80
2019-05-25T01:39:52.309Z,15.80
2019-05-25T01:42:20.024Z,15.70
2019-05-25T01:44:46.965Z,15.70
2019-05-25T01:47:13.753Z,15.70
2019-05-25T01:49:40.835Z,15.50
2019-05-25T01:52:07.553Z,15.50
2019-05-25T01:54:34.272Z,15.40
2019-05-25T01:57:01.161Z,15.30
2019-05-25T01:59:27.875Z,15.20
2019-05-25T02:01:54.600Z,15.10
2019-05-25T02:04:21.392Z,15.20
2019-05-25T02:06:48.213Z,15.20
2019-05-25T02:09:15.249Z,15.30
2019-05-25T02:11:42.378Z,15.30
2019-05-25T02:14:09.634Z,15.20
2019-05-25T02:16:36.773Z,15.10
2019-05-25T02:19:03.664Z,15.10
2019-05-25T02:21:30.695Z,15.20
2019-05-25T02:23:57.471Z,15.40
2019-05-25T02:26:24.433Z,15.50
2019-05-25T02:28:51.163Z,15.40
2019-05-25T02:31:18.255Z,15.40
2019-05-25T02:33:45.299Z,15.40
2019-05-25T02:36:11.994Z,15.40
2019-05-25T02:38:39.092Z,15.50
2019-05-25T02:41:06.093Z,15.40
2019-05-25T02:43:32.797Z,15.40
2019-05-25T02:45:59.476Z,15.30
2019-05-25T02:48:26.340Z,15.40
2019-05-25T02:50:53.319Z,15.30
2019-05-25T02:53:20.085Z,15.20
2019-05-25T02:55:46.829Z,15.20
2019-05-25T02:58:13.892Z,15.20
2019-05-25T03:00:40.575Z,15.30
2019-05-25T03:03:07.602Z,15.30
2019-05-25T03:05:34.311Z,15.30
2019-05-25T03:08:01.684Z,15.20
2019-05-25T03:10:29.902Z,15.20
2019-05-25T03:12:59.973Z,15.20
2019-05-25T03:15:26.756Z,15.10
2019-05-25T03:17:53.472Z,15.20
2019-05-25T03:20:20.386Z,15.20
2019-05-25T03:22:47.100Z,15.10
2019-05-25T03:25:14.014Z,15.20
2019-05-25T03:27:40.785Z,15.20
2019-05-25T03:30:08.294Z,15.20
2019-05-25T03:32:35.490Z,15.20
2019-05-25T03:35:02.712Z,15.20
2019-05-25T03:37:29.418Z,15.30
2019-05-25T03:39:56.123Z,15.20
2019-05-25T03:42:23.365Z,15.20
2019-05-25T03:44:50.057Z,15.20
2019-05-25T03:47:17.055Z,15.20
2019-05-25T03:49:43.765Z,15.10
2019-05-25T03:52:10.447Z,15.10
2019-05-25T03:54:37.171Z,15.10
2019-05-25T03:57:03.857Z,15.00
2019-05-25T03:59:30.544Z,14.90
2019-05-25T04:01:57.245Z,14.90
2019-05-25T04:04:23.932Z,14.90
2019-05-25T04:06:50.640Z,14.80
2019-05-25T04:09:17.337Z,14.70
2019-05-25T04:11:44.004Z,14.70
2019-05-25T04:14:10.720Z,14.70
2019-05-25T04:16:37.412Z,14.70
2019-05-25T04:19:04.134Z,14.80
2019-05-25T04:21:31.145Z,14.80
2019-05-25T04:23:57.848Z,14.70
2019-05-25T04:26:27.516Z,14.60
2019-05-25T04:28:53.387Z,14.60
2019-05-25T04:31:20.098Z,14.60
2019-05-25T04:33:46.808Z,14.70
2019-05-25T04:36:13.633Z,14.70
2019-05-25T04:38:40.694Z,14.70
2019-05-25T04:41:07.367Z,15.00
2019-05-25T04:43:34.045Z,15.20
2019-05-25T04:46:00.805Z,15.50
2019-05-25T04:48:27.576Z,15.90
2019-05-25T04:50:54.577Z,16.60
2019-05-25T04:53:21.937Z,17.70
2019-05-25T04:55:48.653Z,19.00
2019-05-25T04:58:15.657Z,19.60
2019-05-25T05:00:42.343Z,19.20
2019-05-25T05:03:09.050Z,20.20
2019-05-25T05:05:35.737Z,21.20
2019-05-25T05:08:02.719Z,21.90
2019-05-25T05:10:29.534Z,22.80
2019-05-25T05:12:56.434Z,22.30
2019-05-25T05:15:23.252Z,22.10
2019-05-25T05:17:49.937Z,22.10
2019-05-25T05:20:16.860Z,22.90
2019-05-25T05:22:43.856Z,24.00
2019-05-25T05:25:11.202Z,24.90
2019-05-25T05:27:39.099Z,25.10
2019-05-25T05:30:06.947Z,23.20
2019-05-25T05:32:33.738Z,22.70
2019-05-25T05:35:00.747Z,23.20
2019-05-25T05:37:28.661Z,22.10
2019-05-25T05:39:56.366Z,21.40
2019-05-25T05:42:26.060Z,20.90
2019-05-25T05:44:54.637Z,20.00
2019-05-25T05:47:24.621Z,19.10
2019-05-25T05:49:53.115Z,19.00
2019-05-25T05:52:21.549Z,19.00
2019-05-25T05:54:49.969Z,19.30
2019-05-25T05:57:16.667Z,19.00
2019-05-25T05:59:43.385Z,19.00
2019-05-25T06:02:10.175Z,19.10
2019-05-25T06:04:37.200Z,18.70
2019-05-25T06:07:03.892Z,18.30
2019-05-25T06:09:30.610Z,18.10
2019-05-25T06:11:57.283Z,20.70
2019-05-25T06:14:23.983Z,24.20
2019-05-25T06:16:50.998Z,26.10
2019-05-25T06:19:17.805Z,27.00
2019-05-25T06:21:44.512Z,28.50
2019-05-25T06:24:11.199Z,29.10
2019-05-25T06:26:37.915Z,30.00
2019-05-25T06:29:05.017Z,30.50
2019-05-25T06:31:32.016Z,31.50
2019-05-25T06:33:58.765Z,32.50
2019-05-25T06:36:25.799Z,33.50
2019-05-25T06:38:52.792Z,32.90
2019-05-25T06:41:19.515Z,33.40
2019-05-25T06:43:46.224Z,34.00
2019-05-25T06:46:13.026Z,34.90
2019-05-25T06:48:40.061Z,36.40
2019-05-25T06:51:06.807Z,36.70
2019-05-25T06:53:33.548Z,37.10
2019-05-25T06:56:00.298Z,36.50
2019-05-25T06:58:26.999Z,35.20
2019-05-25T07:00:53.694Z,35.60
2019-05-25T07:03:20.404Z,36.60
2019-05-25T07:05:47.221Z,34.30
2019-05-25T07:08:13.895Z,33.30
2019-05-25T07:10:40.623Z,34.40
2019-05-25T07:13:07.316Z,31.50
2019-05-25T07:15:34.103Z,31.80
2019-05-25T07:18:00.935Z,34.60
2019-05-25T07:20:28.013Z,34.70
2019-05-25T07:22:54.703Z,37.00
2019-05-25T07:25:21.735Z,37.00
2019-05-25T07:27:58.669Z,38.20
2019-05-25T07:30:17.561Z,39.50
2019-05-25T07:32:44.478Z,39.10
2019-05-25T07:35:11.770Z,39.80
2019-05-25T07:37:38.671Z,39.80
2019-05-25T07:40:05.701Z,38.90
2019-05-25T07:42:32.390Z,38.30
2019-05-25T07:44:59.238Z,37.00
2019-05-25T07:47:26.583Z,33.30
2019-05-25T07:49:53.395Z,32.20
2019-05-25T07:52:20.120Z,32.20
2019-05-25T07:54:47.086Z,33.70
2019-05-25T07:57:13.795Z,33.80
2019-05-25T07:59:40.471Z,36.10
2019-05-25T08:02:07.630Z,34.50
2019-05-25T08:04:34.327Z,33.00
2019-05-25T08:07:01.321Z,31.10
2019-05-25T08:09:28.055Z,29.70
2019-05-25T08:11:54.745Z,31.10
2019-05-25T08:14:21.746Z,33.00
2019-05-25T08:16:48.458Z,33.60
2019-05-25T08:19:15.181Z,34.20
2019-05-25T08:21:41.912Z,35.60
2019-05-25T08:24:08.698Z,35.80
2019-05-25T08:26:35.512Z,35.90
2019-05-25T08:29:02.547Z,33.30
2019-05-25T08:31:29.277Z,33.50
2019-05-25T08:33:56.222Z,34.80
2019-05-25T08:36:22.942Z,34.10
2019-05-25T08:38:49.983Z,34.50
2019-05-25T08:41:16.698Z,35.40
2019-05-25T08:43:43.418Z,34.40
2019-05-25T08:46:10.231Z,34.00
2019-05-25T08:48:36.937Z,33.80
2019-05-25T08:51:03.728Z,31.80
2019-05-25T08:53:40.541Z,30.20
2019-05-25T08:55:59.952Z,29.80
2019-05-25T08:58:26.925Z,28.60
2019-05-25T09:00:53.876Z,28.00
2019-05-25T09:03:20.693Z,27.10
2019-05-25T09:05:47.699Z,27.10
2019-05-25T09:08:14.388Z,27.80
2019-05-25T09:10:41.368Z,28.10
2019-05-25T09:13:08.087Z,27.10
2019-05-25T09:15:35.225Z,28.80
2019-05-25T09:18:02.056Z,29.30
2019-05-25T09:20:28.865Z,30.00
2019-05-25T09:22:55.587Z,30.40
2019-05-25T09:25:22.270Z,32.30
2019-05-25T09:27:48.961Z,32.00
2019-05-25T09:30:16.862Z,29.90
2019-05-25T09:32:43.601Z,29.20
2019-05-25T09:35:10.836Z,27.60
2019-05-25T09:37:37.521Z,27.10
2019-05-25T09:40:05.096Z,27.30
2019-05-25T09:42:31.913Z,27.60
2019-05-25T09:44:58.759Z,27.20
2019-05-25T09:47:25.561Z,27.70
2019-05-25T09:49:52.574Z,28.50
2019-05-25T09:52:19.410Z,28.50
2019-05-25T09:54:46.187Z,28.50
2019-05-25T09:57:13.012Z,28.00
2019-05-25T09:59:39.722Z,27.30
2019-05-25T10:02:07.116Z,26.70
2019-05-25T10:04:33.803Z,24.90
2019-05-25T10:07:00.480Z,24.40
2019-05-25T10:09:27.297Z,23.80
2019-05-25T10:11:54.124Z,23.60
2019-05-25T10:14:21.117Z,23.10
2019-05-25T10:16:48.211Z,22.50
2019-05-25T10:19:14.935Z,21.80
2019-05-25T10:21:41.627Z,21.80
2019-05-25T10:24:08.637Z,21.50
2019-05-25T10:26:35.315Z,21.70
2019-05-25T10:29:02.541Z,21.50
2019-05-25T10:31:29.244Z,21.50
2019-05-25T10:33:56.073Z,21.50
2019-05-25T10:36:22.821Z,21.60
2019-05-25T10:38:49.964Z,21.60
2019-05-25T10:41:16.652Z,21.60
2019-05-25T10:43:43.476Z,22.00
2019-05-25T10:46:10.198Z,21.80
2019-05-25T10:48:37.216Z,21.90
2019-05-25T10:51:03.982Z,22.30
2019-05-25T10:53:30.671Z,22.50
2019-05-25T10:55:57.497Z,22.30
2019-05-25T10:58:24.181Z,22.10
2019-05-25T11:00:51.279Z,21.90
2019-05-25T11:03:18.025Z,22.10
2019-05-25T11:05:44.730Z,21.90
2019-05-25T11:08:11.441Z,22.10
2019-05-25T11:10:38.156Z,21.90
2019-05-25T11:13:04.893Z,22.20
2019-05-25T11:15:31.589Z,22.50
2019-05-25T11:17:58.423Z,22.50
2019-05-25T11:20:25.429Z,22.20
2019-05-25T11:22:52.406Z,22.50
2019-05-25T11:25:19.309Z,22.90
2019-05-25T11:27:46.677Z,22.60
2019-05-25T11:30:14.351Z,22.10
2019-05-25T11:32:41.470Z,22.30
2019-05-25T11:35:08.971Z,22.30
2019-05-25T11:37:35.675Z,22.10
2019-05-25T11:40:03.562Z,21.60
2019-05-25T11:42:30.247Z,21.70
2019-05-25T11:44:56.950Z,21.50
2019-05-25T11:47:23.788Z,21.70
2019-05-25T11:49:51.019Z,21.60
2019-05-25T11:52:17.956Z,21.50
2019-05-25T11:54:44.644Z,21.50
2019-05-25T11:57:11.498Z,21.50
2019-05-25T11:59:38.181Z,21.50
2019-05-25T12:02:04.978Z,21.70
2019-05-25T12:04:32.299Z,21.90
2019-05-25T12:06:59.062Z,21.90
2019-05-25T12:09:25.808Z,22.20
2019-05-25T12:11:52.515Z,22.40
2019-05-25T12:14:19.607Z,22.50
2019-05-25T12:16:46.302Z,22.10
2019-05-25T12:19:15.037Z,21.90
2019-05-25T12:21:41.808Z,21.90
2019-05-25T12:24:08.527Z,22.00
2019-05-25T12:26:35.355Z,22.00
2019-05-25T12:29:02.172Z,21.90
2019-05-25T12:31:28.863Z,21.70
2019-05-25T12:33:55.570Z,21.70
2019-05-25T12:36:22.239Z,21.70
2019-05-25T12:38:48.915Z,21.70
2019-05-25T12:41:15.985Z,21.40
2019-05-25T12:43:42.665Z,21.40
2019-05-25T12:46:09.347Z,21.40
2019-05-25T12:48:36.357Z,21.50
2019-05-25T12:51:03.183Z,21.70
2019-05-25T12:53:29.848Z,21.90
2019-05-25T12:55:57.007Z,21.90
2019-05-25T12:58:23.997Z,21.70
2019-05-25T13:00:56.088Z,21.70
2019-05-25T13:03:19.528Z,21.80
2019-05-25T13:05:46.241Z,21.90
2019-05-25T13:08:12.965Z,21.80
2019-05-25T13:10:39.651Z,21.70
2019-05-25T13:13:06.327Z,21.80
2019-05-25T13:15:33.156Z,21.80
2019-05-25T13:17:59.841Z,21.90
2019-05-25T13:20:26.660Z,21.90
2019-05-25T13:22:53.719Z,21.70
2019-05-25T13:25:20.572Z,21.70
2019-05-25T13:27:47.351Z,21.70
2019-05-25T13:30:15.305Z,21.70
2019-05-25T13:32:42.007Z,21.70
2019-05-25T13:35:09.156Z,21.50
2019-05-25T13:37:36.756Z,21.60
2019-05-25T13:40:04.056Z,21.80
2019-05-25T13:42:30.981Z,22.00
2019-05-25T13:44:57.997Z,22.00
2019-05-25T13:47:25.021Z,21.90
2019-05-25T13:49:51.748Z,22.00
2019-05-25T13:52:18.531Z,21.90
2019-05-25T13:54:45.549Z,21.90
2019-05-25T13:57:12.347Z,22.00
2019-05-25T13:59:39.339Z,21.70
2019-05-25T14:02:06.272Z,21.80
2019-05-25T14:04:32.978Z,21.70
2019-05-25T14:06:59.678Z,21.70
2019-05-25T14:09:26.495Z,21.80
2019-05-25T14:11:53.212Z,22.10
2019-05-25T14:14:19.904Z,22.10
2019-05-25T14:16:46.655Z,21.80
2019-05-25T14:19:13.349Z,21.70
2019-05-25T14:21:40.645Z,21.70
2019-05-25T14:24:07.336Z,21.60
2019-05-25T14:26:34.035Z,21.70
2019-05-25T14:29:00.763Z,21.90
2019-05-25T14:31:42.451Z,22.20
2019-05-25T14:33:56.648Z,22.30
2019-05-25T14:36:23.361Z,22.40
2019-05-25T14:38:50.421Z,22.70
2019-05-25T14:41:17.475Z,22.90
2019-05-25T14:43:44.169Z,23.10
2019-05-25T14:46:26.620Z,22.80
2019-05-25T14:48:39.502Z,22.70
2019-05-25T14:51:06.324Z,22.50
2019-05-25T14:53:33.107Z,22.20
2019-05-25T14:55:59.935Z,22.10
2019-05-25T14:58:26.648Z,22.10
2019-05-25T15:00:55.812Z,22.00
2019-05-25T15:03:22.497Z,22.00
2019-05-25T15:05:49.211Z,21.90
2019-05-25T15:08:16.036Z,22.20
2019-05-25T15:10:42.760Z,22.60
2019-05-25T15:13:09.833Z,22.90
2019-05-25T15:15:36.729Z,23.00
2019-05-25T15:18:03.737Z,23.00
2019-05-25T15:20:30.431Z,23.00
2019-05-25T15:22:57.116Z,23.00
2019-05-25T15:25:23.938Z,22.90
2019-05-25T15:27:51.045Z,22.70
2019-05-25T15:30:17.846Z,22.70
2019-05-25T15:32:44.553Z,22.80
2019-05-25T15:35:12.447Z,22.90
2019-05-25T15:37:39.176Z,22.70
2019-05-25T15:40:07.637Z,22.30
2019-05-25T15:42:34.315Z,22.10
2019-05-25T15:45:01.000Z,22.30
2019-05-25T15:47:27.733Z,22.60
2019-05-25T15:49:54.819Z,22.50
2019-05-25T15:52:21.754Z,22.30
2019-05-25T15:54:48.444Z,22.30
2019-05-25T15:57:15.799Z,22.20
2019-05-25T15:59:42.990Z,22.20
2019-05-25T16:02:10.117Z,22.00
2019-05-25T16:04:38.168Z,21.80
2019-05-25T16:07:05.155Z,21.60
2019-05-25T16:09:31.903Z,21.50
2019-05-25T16:11:59.395Z,21.60
2019-05-25T16:14:26.087Z,21.40
2019-05-25T16:16:52.777Z,21.20
2019-05-25T16:19:19.607Z,21.20
2019-05-25T16:21:46.291Z,21.30
2019-05-25T16:24:13.073Z,21.30
2019-05-25T16:26:46.162Z,21.20
2019-05-25T16:29:08.778Z,21.20
2019-05-25T16:31:35.790Z,21.20
2019-05-25T16:34:02.864Z,21.10
2019-05-25T16:36:29.780Z,21.10
2019-05-25T16:38:56.459Z,21.00
2019-05-25T16:41:23.341Z,20.80
2019-05-25T16:43:50.127Z,20.50
2019-05-25T16:46:16.869Z,20.40
2019-05-25T16:48:43.935Z,20.30
2019-05-25T16:51:11.361Z,20.20
2019-05-25T16:53:38.092Z,20.30
2019-05-25T16:56:05.162Z,20.40
2019-05-25T16:58:31.877Z,20.40
2019-05-25T17:00:58.907Z,20.60
2019-05-25T17:03:28.654Z,20.60
2019-05-25T17:05:54.339Z,20.50
2019-05-25T17:08:21.495Z,20.50
2019-05-25T17:10:48.530Z,20.50
2019-05-25T17:13:15.224Z,20.50
2019-05-25T17:15:41.935Z,20.50
2019-05-25T17:18:08.901Z,20.50
2019-05-25T17:20:35.609Z,20.40
2019-05-25T17:23:02.507Z,20.40
2019-05-25T17:25:29.238Z,20.50
2019-05-25T17:27:56.012Z,20.40
2019-05-25T17:30:41.110Z,20.30
2019-05-25T17:33:08.337Z,20.10
2019-05-25T17:35:35.345Z,20.10
2019-05-25T17:38:02.365Z,20.00
2019-05-25T17:40:29.166Z,19.90
2019-05-25T17:42:55.977Z,19.90
2019-05-25T17:45:22.743Z,19.90
2019-05-25T17:47:49.435Z,20.00
2019-05-25T17:50:16.449Z,20.00
2019-05-25T17:52:43.420Z,20.00
2019-05-25T17:55:10.346Z,19.90
2019-05-25T17:57:37.058Z,19.80
2019-05-25T18:00:06.179Z,19.90
2019-05-25T18:02:32.907Z,19.90
2019-05-25T18:04:59.584Z,19.90
2019-05-25T18:07:26.402Z,20.00
2019-05-25T18:09:53.183Z,20.00
2019-05-25T18:12:19.976Z,20.00
2019-05-25T18:14:46.716Z,20.00
2019-05-25T18:17:13.679Z,20.00
2019-05-25T18:19:40.920Z,20.00
2019-05-25T18:22:07.637Z,19.90
2019-05-25T18:24:34.568Z,19.80
2019-05-25T18:27:01.351Z,19.60
2019-05-25T18:29:28.024Z,19.50
2019-05-25T18:31:54.760Z,19.50
2019-05-25T18:34:22.510Z,19.30
2019-05-25T18:36:49.462Z,19.30
2019-05-25T18:39:16.248Z,19.00
2019-05-25T18:41:42.939Z,18.80
2019-05-25T18:44:09.895Z,18.80
2019-05-25T18:46:36.929Z,18.60
2019-05-25T18:49:03.793Z,18.60
2019-05-25T18:51:30.477Z,18.50
2019-05-25T18:53:57.479Z,18.50
2019-05-25T18:56:24.171Z,18.50
2019-05-25T18:58:50.915Z,18.50
2019-05-25T19:01:17.727Z,18.50
2019-05-25T19:03:44.533Z,18.70
2019-05-25T19:06:11.344Z,18.70
2019-05-25T19:08:38.021Z,18.60
2019-05-25T19:11:04.859Z,18.50
2019-05-25T19:13:31.537Z,18.50
2019-05-25T19:15:58.207Z,18.50
2019-05-25T19:18:25.298Z,18.40
2019-05-25T19:20:51.993Z,18.40
2019-05-25T19:23:18.712Z,18.30
2019-05-25T19:25:45.630Z,18.30
2019-05-25T19:28:12.358Z,18.30
2019-05-25T19:30:39.461Z,18.40
2019-05-25T19:33:06.560Z,18.40
2019-05-25T19:35:33.280Z,18.30
2019-05-25T19:38:00.562Z,18.30
2019-05-25T19:40:27.725Z,18.20
2019-05-25T19:42:54.512Z,18.20
2019-05-25T19:45:21.492Z,18.10
2019-05-25T19:47:48.541Z,18.10
2019-05-25T19:50:15.555Z,18.00
2019-05-25T19:52:42.312Z,18.00
2019-05-25T19:55:09.537Z,18.00
2019-05-25T19:57:36.363Z,17.90
2019-05-25T20:00:04.493Z,17.90
2019-05-25T20:02:31.418Z,17.90
2019-05-25T20:04:58.133Z,17.90
2019-05-25T20:07:25.062Z,17.80
2019-05-25T20:09:51.751Z,17.70
2019-05-25T20:12:19.043Z,17.80
2019-05-25T20:14:45.715Z,17.80
2019-05-25T20:17:12.547Z,17.80
2019-05-25T20:19:39.255Z,17.80
2019-05-25T20:22:09.128Z,17.80
2019-05-25T20:24:34.577Z,17.80
2019-05-25T20:27:01.810Z,17.80
2019-05-25T20:29:28.806Z,17.70
2019-05-25T20:31:55.582Z,17.60
2019-05-25T20:34:22.333Z,17.60
2019-05-25T20:36:49.000Z,17.60
2019-05-25T20:39:15.735Z,17.50
2019-05-25T20:41:42.420Z,17.50
2019-05-25T20:44:09.455Z,17.50
2019-05-25T20:46:36.478Z,17.40
2019-05-25T20:49:03.366Z,17.30
2019-05-25T20:51:30.080Z,17.30
2019-05-25T20:53:56.844Z,17.30
2019-05-25T20:56:23.617Z,17.10
2019-05-25T20:58:50.572Z,17.10
2019-05-25T21:01:17.295Z,17.00
2019-05-25T21:03:44.562Z,17.10
2019-05-25T21:06:11.527Z,17.10
2019-05-25T21:08:38.219Z,17.00
2019-05-25T21:11:04.905Z,16.90
2019-05-25T21:13:31.589Z,16.90
2019-05-25T21:15:58.812Z,16.80
2019-05-25T21:18:25.753Z,16.60
2019-05-25T21:20:52.510Z,16.70
2019-05-25T21:23:19.234Z,16.50
2019-05-25T21:25:45.961Z,16.60
2019-05-25T21:28:12.688Z,16.70
2019-05-25T21:30:39.469Z,16.80
2019-05-25T21:33:06.366Z,16.70
2019-05-25T21:35:33.339Z,16.60
2019-05-25T21:38:00.362Z,16.50
2019-05-25T21:40:27.108Z,16.40
2019-05-25T21:42:54.114Z,16.30
2019-05-25T21:45:20.932Z,16.10
2019-05-25T21:47:48.068Z,15.90
2019-05-25T21:50:14.875Z,15.80
2019-05-25T21:52:42.024Z,15.70
2019-05-25T21:55:09.220Z,15.70
2019-05-25T21:57:35.968Z,15.70
2019-05-25T22:00:04.471Z,15.60
2019-05-25T22:02:31.208Z,15.50
2019-05-25T22:04:57.924Z,15.60
2019-05-25T22:07:24.604Z,15.50
2019-05-25T22:09:51.405Z,15.40
2019-05-25T22:12:18.226Z,15.40
2019-05-25T22:14:44.904Z,15.20
2019-05-25T22:17:11.673Z,15.00
2019-05-25T22:19:38.364Z,15.10
2019-05-25T22:22:05.489Z,15.20
2019-05-25T22:24:32.607Z,15.20
2019-05-25T22:26:59.399Z,15.20
2019-05-25T22:29:26.194Z,15.00
2019-05-25T22:31:52.885Z,14.90
2019-05-25T22:34:19.703Z,14.70
2019-05-25T22:36:46.725Z,14.60
2019-05-25T22:39:13.441Z,14.60
2019-05-25T22:41:40.162Z,14.60
2019-05-25T22:44:06.844Z,14.50
2019-05-25T22:46:33.557Z,14.40
2019-05-25T22:49:00.909Z,14.40
2019-05-25T22:51:27.656Z,14.40
2019-05-25T22:53:54.702Z,14.40
2019-05-25T22:56:21.758Z,14.40
2019-05-25T22:58:48.445Z,14.50
2019-05-25T23:01:15.405Z,14.50
2019-05-25T23:03:42.119Z,14.40
2019-05-25T23:06:08.833Z,14.20
2019-05-25T23:08:35.536Z,14.20
2019-05-25T23:11:02.329Z,14.20
2019-05-25T23:13:29.051Z,14.10
2019-05-25T23:15:55.739Z,14.00
2019-05-25T23:18:22.452Z,13.80
2019-05-25T23:20:49.126Z,13.80
2019-05-25T23:23:15.971Z,13.80
2019-05-25T23:25:42.913Z,13.80
2019-05-25T23:28:09.825Z,13.70
2019-05-25T23:30:36.511Z,13.70
2019-05-25T23:33:03.347Z,13.60
2019-05-25T23:35:30.050Z,13.50
2019-05-25T23:37:56.935Z,13.60
2019-05-25T23:40:23.721Z,13.50
2019-05-25T23:42:50.544Z,13.60
2019-05-25T23:45:17.969Z,13.60
2019-05-25T23:47:45.184Z,13.40
2019-05-25T23:50:13.784Z,13.40
2019-05-25T23:52:40.482Z,13.30
2019-05-25T23:55:07.790Z,13.30
2019-05-25T23:57:34.623Z,13.40
